sensor_id;sensor_type;location;lat;lon;timestamp;P1;durP1;ratioP1;P2;durP2;ratioP2
41263;SDS011;26998;48.714;9.414;2022-10-16T00:01:30;15.27;;;5.00;;
41263;SDS011;26998;48.714;9.414;2022-10-16T00:03:57;7.93;;;5.20;;
41263;SDS011;26998;48.714;9.414;2022-10-16T00:06:26;6.82;;;4.78;;
41263;SDS011;26998;48.714;9.414;2022-10-16T00:08:54;6.95;;;4.80;;
41263;SDS011;26998;48.714;9.414;2022-10-16T00:11:23;6.80;;;4.90;;
41263;SDS011;26998;48.714;9.414;2022-10-16T00:13:55;8.88;;;6.10;;
41263;SDS011;26998;48.714;9.414;2022-10-16T00:16:25;9.27;;;6.07;;
41263;SDS011;26998;48.714;9.414;2022-10-16T00:18:52;9.20;;;6.60;;
41263;SDS011;26998;48.714;9.414;2022-10-16T00:21:20;8.63;;;6.50;;
41263;SDS011;26998;48.714;9.414;2022-10-16T00:23:55;11.00;;;6.65;;
41263;SDS011;26998;48.714;9.414;2022-10-16T00:26:26;8.95;;;6.55;;
41263;SDS011;26998;48.714;9.414;2022-10-16T00:28:54;11.20;;;7.22;;
41263;SDS011;26998;48.714;9.414;2022-10-16T00:31:22;11.23;;;6.88;;
41263;SDS011;26998;48.714;9.414;2022-10-16T00:33:50;8.20;;;6.53;;
41263;SDS011;26998;48.714;9.414;2022-10-16T00:36:18;7.07;;;6.13;;
41263;SDS011;26998;48.714;9.414;2022-10-16T00:38:47;8.05;;;6.53;;
41263;SDS011;26998;48.714;9.414;2022-10-16T00:41:17;11.35;;;6.70;;
41263;SDS011;26998;48.714;9.414;2022-10-16T00:43:44;8.00;;;6.65;;
41263;SDS011;26998;48.714;9.414;2022-10-16T00:46:23;12.50;;;7.53;;
41263;SDS011;26998;48.714;9.414;2022-10-16T00:48:55;7.30;;;6.25;;
41263;SDS011;26998;48.714;9.414;2022-10-16T00:51:33;7.75;;;5.63;;
41263;SDS011;26998;48.714;9.414;2022-10-16T00:54:08;8.38;;;5.88;;
41263;SDS011;26998;48.714;9.414;2022-10-16T00:56:41;10.77;;;4.80;;
41263;SDS011;26998;48.714;9.414;2022-10-16T00:59:12;16.83;;;6.43;;
41263;SDS011;26998;48.714;9.414;2022-10-16T01:01:41;10.27;;;4.55;;
41263;SDS011;26998;48.714;9.414;2022-10-16T01:04:08;5.03;;;4.45;;
41263;SDS011;26998;48.714;9.414;2022-10-16T01:06:52;6.45;;;4.68;;
41263;SDS011;26998;48.714;9.414;2022-10-16T01:12:50;8.63;;;4.70;;
41263;SDS011;26998;48.714;9.414;2022-10-16T01:15:26;7.28;;;4.15;;
41263;SDS011;26998;48.714;9.414;2022-10-16T01:18:07;8.85;;;4.55;;
41263;SDS011;26998;48.714;9.414;2022-10-16T01:26:16;13.18;;;4.50;;
41263;SDS011;26998;48.714;9.414;2022-10-16T01:29:03;14.07;;;3.83;;
41263;SDS011;26998;48.714;9.414;2022-10-16T01:31:39;8.93;;;3.88;;
41263;SDS011;26998;48.714;9.414;2022-10-16T01:34:13;8.10;;;3.83;;
41263;SDS011;26998;48.714;9.414;2022-10-16T01:36:47;8.45;;;3.80;;
41263;SDS011;26998;48.714;9.414;2022-10-16T01:39:20;8.23;;;4.00;;
41263;SDS011;26998;48.714;9.414;2022-10-16T01:41:54;7.20;;;4.03;;
41263;SDS011;26998;48.714;9.414;2022-10-16T01:44:31;10.15;;;4.10;;
41263;SDS011;26998;48.714;9.414;2022-10-16T01:47:01;9.93;;;3.67;;
41263;SDS011;26998;48.714;9.414;2022-10-16T01:49:30;9.25;;;4.00;;
41263;SDS011;26998;48.714;9.414;2022-10-16T01:52:02;6.65;;;3.00;;
41263;SDS011;26998;48.714;9.414;2022-10-16T01:54:36;6.97;;;3.70;;
41263;SDS011;26998;48.714;9.414;2022-10-16T01:57:06;9.98;;;3.83;;
41263;SDS011;26998;48.714;9.414;2022-10-16T01:59:35;6.78;;;4.15;;
41263;SDS011;26998;48.714;9.414;2022-10-16T02:02:07;12.20;;;4.20;;
41263;SDS011;26998;48.714;9.414;2022-10-16T02:04:47;7.22;;;4.38;;
41263;SDS011;26998;48.714;9.414;2022-10-16T02:07:19;21.20;;;5.07;;
41263;SDS011;26998;48.714;9.414;2022-10-16T02:09:45;10.32;;;3.95;;
41263;SDS011;26998;48.714;9.414;2022-10-16T02:12:20;12.23;;;4.05;;
41263;SDS011;26998;48.714;9.414;2022-10-16T02:14:54;9.73;;;4.10;;
41263;SDS011;26998;48.714;9.414;2022-10-16T02:17:21;8.65;;;3.78;;
41263;SDS011;26998;48.714;9.414;2022-10-16T02:19:48;7.18;;;3.13;;
41263;SDS011;26998;48.714;9.414;2022-10-16T02:22:32;7.28;;;3.05;;
41263;SDS011;26998;48.714;9.414;2022-10-16T02:25:06;7.32;;;3.45;;
41263;SDS011;26998;48.714;9.414;2022-10-16T02:30:25;9.60;;;3.67;;
41263;SDS011;26998;48.714;9.414;2022-10-16T02:32:56;7.18;;;3.78;;
41263;SDS011;26998;48.714;9.414;2022-10-16T02:35:26;4.70;;;3.33;;
41263;SDS011;26998;48.714;9.414;2022-10-16T02:37:54;15.82;;;3.65;;
41263;SDS011;26998;48.714;9.414;2022-10-16T02:40:22;4.93;;;3.63;;
41263;SDS011;26998;48.714;9.414;2022-10-16T02:42:51;12.50;;;3.85;;
41263;SDS011;26998;48.714;9.414;2022-10-16T02:45:19;9.27;;;3.58;;
41263;SDS011;26998;48.714;9.414;2022-10-16T02:47:47;7.80;;;4.10;;
41263;SDS011;26998;48.714;9.414;2022-10-16T02:50:14;7.45;;;3.60;;
41263;SDS011;26998;48.714;9.414;2022-10-16T02:52:41;6.93;;;2.90;;
41263;SDS011;26998;48.714;9.414;2022-10-16T02:55:07;8.75;;;3.35;;
41263;SDS011;26998;48.714;9.414;2022-10-16T02:57:34;7.97;;;2.80;;
41263;SDS011;26998;48.714;9.414;2022-10-16T03:00:00;5.75;;;3.20;;
41263;SDS011;26998;48.714;9.414;2022-10-16T03:02:27;4.18;;;2.72;;
41263;SDS011;26998;48.714;9.414;2022-10-16T03:04:53;5.03;;;3.47;;
41263;SDS011;26998;48.714;9.414;2022-10-16T03:07:20;5.90;;;3.22;;
41263;SDS011;26998;48.714;9.414;2022-10-16T03:09:46;6.07;;;3.15;;
41263;SDS011;26998;48.714;9.414;2022-10-16T03:12:13;6.13;;;3.00;;
41263;SDS011;26998;48.714;9.414;2022-10-16T03:14:43;3.78;;;3.00;;
41263;SDS011;26998;48.714;9.414;2022-10-16T03:17:10;4.07;;;3.20;;
41263;SDS011;26998;48.714;9.414;2022-10-16T03:19:36;6.90;;;2.70;;
41263;SDS011;26998;48.714;9.414;2022-10-16T03:22:03;4.53;;;3.30;;
41263;SDS011;26998;48.714;9.414;2022-10-16T03:24:30;8.23;;;3.03;;
41263;SDS011;26998;48.714;9.414;2022-10-16T03:26:57;9.80;;;3.63;;
41263;SDS011;26998;48.714;9.414;2022-10-16T03:29:26;7.63;;;3.50;;
41263;SDS011;26998;48.714;9.414;2022-10-16T03:31:53;8.13;;;3.05;;
41263;SDS011;26998;48.714;9.414;2022-10-16T03:34:19;3.75;;;2.38;;
41263;SDS011;26998;48.714;9.414;2022-10-16T03:36:46;4.90;;;2.72;;
41263;SDS011;26998;48.714;9.414;2022-10-16T03:39:12;2.90;;;2.47;;
41263;SDS011;26998;48.714;9.414;2022-10-16T03:41:39;6.30;;;3.35;;
41263;SDS011;26998;48.714;9.414;2022-10-16T03:44:06;4.25;;;2.80;;
41263;SDS011;26998;48.714;9.414;2022-10-16T03:46:32;6.22;;;2.70;;
41263;SDS011;26998;48.714;9.414;2022-10-16T03:48:59;9.10;;;3.03;;
41263;SDS011;26998;48.714;9.414;2022-10-16T03:51:28;5.15;;;2.67;;
41263;SDS011;26998;48.714;9.414;2022-10-16T03:53:54;4.05;;;2.33;;
41263;SDS011;26998;48.714;9.414;2022-10-16T03:56:21;4.90;;;2.88;;
41263;SDS011;26998;48.714;9.414;2022-10-16T03:58:47;4.97;;;2.78;;
41263;SDS011;26998;48.714;9.414;2022-10-16T04:01:14;3.38;;;2.42;;
41263;SDS011;26998;48.714;9.414;2022-10-16T04:03:40;6.38;;;2.72;;
41263;SDS011;26998;48.714;9.414;2022-10-16T04:06:07;3.85;;;2.75;;
41263;SDS011;26998;48.714;9.414;2022-10-16T04:08:33;6.03;;;2.67;;
41263;SDS011;26998;48.714;9.414;2022-10-16T04:11:00;3.22;;;2.42;;
41263;SDS011;26998;48.714;9.414;2022-10-16T04:13:27;4.40;;;2.60;;
41263;SDS011;26998;48.714;9.414;2022-10-16T04:15:53;2.67;;;2.35;;
41263;SDS011;26998;48.714;9.414;2022-10-16T04:18:19;12.63;;;2.58;;
41263;SDS011;26998;48.714;9.414;2022-10-16T04:20:46;6.25;;;2.80;;
41263;SDS011;26998;48.714;9.414;2022-10-16T04:23:12;10.63;;;3.53;;
41263;SDS011;26998;48.714;9.414;2022-10-16T04:25:39;8.75;;;2.63;;
41263;SDS011;26998;48.714;9.414;2022-10-16T04:28:07;8.35;;;3.00;;
41263;SDS011;26998;48.714;9.414;2022-10-16T04:30:33;2.80;;;2.33;;
41263;SDS011;26998;48.714;9.414;2022-10-16T04:33:01;5.68;;;3.15;;
41263;SDS011;26998;48.714;9.414;2022-10-16T04:35:29;6.10;;;2.70;;
41263;SDS011;26998;48.714;9.414;2022-10-16T04:37:57;12.52;;;3.78;;
41263;SDS011;26998;48.714;9.414;2022-10-16T04:40:24;9.27;;;3.40;;
41263;SDS011;26998;48.714;9.414;2022-10-16T04:42:50;10.57;;;3.25;;
41263;SDS011;26998;48.714;9.414;2022-10-16T04:45:19;4.18;;;2.92;;
41263;SDS011;26998;48.714;9.414;2022-10-16T04:47:46;7.20;;;3.50;;
41263;SDS011;26998;48.714;9.414;2022-10-16T04:50:13;4.40;;;3.22;;
41263;SDS011;26998;48.714;9.414;2022-10-16T04:52:40;4.50;;;2.78;;
41263;SDS011;26998;48.714;9.414;2022-10-16T04:55:07;10.98;;;2.70;;
41263;SDS011;26998;48.714;9.414;2022-10-16T04:57:33;10.25;;;2.80;;
41263;SDS011;26998;48.714;9.414;2022-10-16T05:00:00;7.25;;;3.00;;
41263;SDS011;26998;48.714;9.414;2022-10-16T05:02:27;7.10;;;2.55;;
41263;SDS011;26998;48.714;9.414;2022-10-16T05:04:54;6.90;;;2.53;;
41263;SDS011;26998;48.714;9.414;2022-10-16T05:07:20;4.50;;;2.47;;
41263;SDS011;26998;48.714;9.414;2022-10-16T05:09:47;5.97;;;2.55;;
41263;SDS011;26998;48.714;9.414;2022-10-16T05:12:14;7.40;;;2.28;;
41263;SDS011;26998;48.714;9.414;2022-10-16T05:14:40;9.98;;;2.75;;
41263;SDS011;26998;48.714;9.414;2022-10-16T05:17:07;4.75;;;2.47;;
41263;SDS011;26998;48.714;9.414;2022-10-16T05:19:33;6.32;;;2.00;;
41263;SDS011;26998;48.714;9.414;2022-10-16T05:22:00;3.95;;;1.95;;
41263;SDS011;26998;48.714;9.414;2022-10-16T05:24:27;5.47;;;2.58;;
41263;SDS011;26998;48.714;9.414;2022-10-16T05:26:55;3.22;;;2.45;;
41263;SDS011;26998;48.714;9.414;2022-10-16T05:29:22;7.63;;;3.13;;
41263;SDS011;26998;48.714;9.414;2022-10-16T05:31:50;6.63;;;2.55;;
41263;SDS011;26998;48.714;9.414;2022-10-16T05:34:17;5.72;;;2.60;;
41263;SDS011;26998;48.714;9.414;2022-10-16T05:36:43;8.80;;;2.53;;
41263;SDS011;26998;48.714;9.414;2022-10-16T05:39:10;6.70;;;3.47;;
41263;SDS011;26998;48.714;9.414;2022-10-16T05:41:37;10.98;;;6.43;;
41263;SDS011;26998;48.714;9.414;2022-10-16T05:44:04;10.88;;;4.75;;
41263;SDS011;26998;48.714;9.414;2022-10-16T05:46:32;6.82;;;4.30;;
41263;SDS011;26998;48.714;9.414;2022-10-16T05:48:59;6.82;;;3.78;;
41263;SDS011;26998;48.714;9.414;2022-10-16T05:51:25;6.50;;;4.05;;
41263;SDS011;26998;48.714;9.414;2022-10-16T05:53:52;4.97;;;3.33;;
41263;SDS011;26998;48.714;9.414;2022-10-16T05:56:20;6.22;;;3.38;;
41263;SDS011;26998;48.714;9.414;2022-10-16T05:58:48;7.95;;;3.13;;
41263;SDS011;26998;48.714;9.414;2022-10-16T06:01:15;7.40;;;3.20;;
41263;SDS011;26998;48.714;9.414;2022-10-16T06:03:46;4.53;;;3.05;;
41263;SDS011;26998;48.714;9.414;2022-10-16T06:06:14;4.45;;;2.90;;
41263;SDS011;26998;48.714;9.414;2022-10-16T06:08:43;5.85;;;2.92;;
41263;SDS011;26998;48.714;9.414;2022-10-16T06:11:12;11.48;;;3.90;;
41263;SDS011;26998;48.714;9.414;2022-10-16T06:13:52;7.40;;;3.45;;
41263;SDS011;26998;48.714;9.414;2022-10-16T06:16:20;6.00;;;3.03;;
41263;SDS011;26998;48.714;9.414;2022-10-16T06:18:47;7.60;;;3.00;;
41263;SDS011;26998;48.714;9.414;2022-10-16T06:21:14;6.95;;;2.65;;
41263;SDS011;26998;48.714;9.414;2022-10-16T06:23:43;5.38;;;3.05;;
41263;SDS011;26998;48.714;9.414;2022-10-16T06:26:12;5.95;;;2.90;;
41263;SDS011;26998;48.714;9.414;2022-10-16T06:28:40;5.18;;;2.88;;
41263;SDS011;26998;48.714;9.414;2022-10-16T06:31:09;4.47;;;2.55;;
41263;SDS011;26998;48.714;9.414;2022-10-16T06:33:37;5.30;;;2.72;;
41263;SDS011;26998;48.714;9.414;2022-10-16T06:36:05;8.63;;;3.45;;
41263;SDS011;26998;48.714;9.414;2022-10-16T06:38:32;9.93;;;3.75;;
41263;SDS011;26998;48.714;9.414;2022-10-16T06:40:59;5.65;;;2.90;;
41263;SDS011;26998;48.714;9.414;2022-10-16T06:43:28;5.20;;;3.65;;
41263;SDS011;26998;48.714;9.414;2022-10-16T06:45:55;6.20;;;3.00;;
41263;SDS011;26998;48.714;9.414;2022-10-16T06:48:23;10.82;;;4.28;;
41263;SDS011;26998;48.714;9.414;2022-10-16T06:53:34;7.85;;;4.85;;
41263;SDS011;26998;48.714;9.414;2022-10-16T06:56:21;11.05;;;4.85;;
41263;SDS011;26998;48.714;9.414;2022-10-16T06:58:48;9.95;;;4.63;;
41263;SDS011;26998;48.714;9.414;2022-10-16T07:01:16;10.98;;;4.25;;
41263;SDS011;26998;48.714;9.414;2022-10-16T07:03:45;9.93;;;3.83;;
41263;SDS011;26998;48.714;9.414;2022-10-16T07:06:14;5.22;;;3.35;;
41263;SDS011;26998;48.714;9.414;2022-10-16T07:08:42;8.95;;;3.83;;
41263;SDS011;26998;48.714;9.414;2022-10-16T07:11:13;8.20;;;4.32;;
41263;SDS011;26998;48.714;9.414;2022-10-16T07:13:42;11.10;;;3.83;;
41263;SDS011;26998;48.714;9.414;2022-10-16T07:16:16;8.57;;;4.22;;
41263;SDS011;26998;48.714;9.414;2022-10-16T07:18:45;16.70;;;3.80;;
41263;SDS011;26998;48.714;9.414;2022-10-16T07:21:17;7.68;;;4.03;;
41263;SDS011;26998;48.714;9.414;2022-10-16T07:23:49;6.53;;;3.17;;
41263;SDS011;26998;48.714;9.414;2022-10-16T07:26:17;4.95;;;2.58;;
41263;SDS011;26998;48.714;9.414;2022-10-16T07:28:43;9.07;;;3.30;;
41263;SDS011;26998;48.714;9.414;2022-10-16T07:31:12;4.38;;;2.45;;
41263;SDS011;26998;48.714;9.414;2022-10-16T07:33:40;5.80;;;2.58;;
41263;SDS011;26998;48.714;9.414;2022-10-16T07:36:08;5.05;;;2.58;;
41263;SDS011;26998;48.714;9.414;2022-10-16T07:38:41;4.85;;;2.13;;
41263;SDS011;26998;48.714;9.414;2022-10-16T07:41:09;4.28;;;2.10;;
41263;SDS011;26998;48.714;9.414;2022-10-16T07:43:37;4.60;;;2.40;;
41263;SDS011;26998;48.714;9.414;2022-10-16T07:46:07;5.32;;;2.85;;
41263;SDS011;26998;48.714;9.414;2022-10-16T07:48:34;9.73;;;5.50;;
41263;SDS011;26998;48.714;9.414;2022-10-16T07:51:01;11.18;;;6.60;;
41263;SDS011;26998;48.714;9.414;2022-10-16T07:53:32;11.25;;;8.18;;
41263;SDS011;26998;48.714;9.414;2022-10-16T07:56:03;15.30;;;4.80;;
41263;SDS011;26998;48.714;9.414;2022-10-16T07:58:33;7.93;;;4.85;;
41263;SDS011;26998;48.714;9.414;2022-10-16T08:01:03;7.68;;;4.47;;
41263;SDS011;26998;48.714;9.414;2022-10-16T08:03:33;4.57;;;3.70;;
41263;SDS011;26998;48.714;9.414;2022-10-16T08:06:00;5.50;;;3.30;;
41263;SDS011;26998;48.714;9.414;2022-10-16T08:08:28;6.80;;;2.90;;
41263;SDS011;26998;48.714;9.414;2022-10-16T08:10:55;4.45;;;2.95;;
41263;SDS011;26998;48.714;9.414;2022-10-16T08:13:22;5.30;;;3.22;;
41263;SDS011;26998;48.714;9.414;2022-10-16T08:15:48;4.88;;;3.50;;
41263;SDS011;26998;48.714;9.414;2022-10-16T08:18:15;6.22;;;3.13;;
41263;SDS011;26998;48.714;9.414;2022-10-16T08:20:42;5.57;;;3.10;;
41263;SDS011;26998;48.714;9.414;2022-10-16T08:23:09;8.30;;;3.63;;
41263;SDS011;26998;48.714;9.414;2022-10-16T08:25:38;5.22;;;3.35;;
41263;SDS011;26998;48.714;9.414;2022-10-16T08:28:06;15.30;;;3.92;;
41263;SDS011;26998;48.714;9.414;2022-10-16T08:30:35;7.20;;;2.90;;
41263;SDS011;26998;48.714;9.414;2022-10-16T08:33:01;4.93;;;2.90;;
41263;SDS011;26998;48.714;9.414;2022-10-16T08:35:29;6.60;;;2.90;;
41263;SDS011;26998;48.714;9.414;2022-10-16T08:37:55;3.55;;;2.50;;
41263;SDS011;26998;48.714;9.414;2022-10-16T08:40:26;7.85;;;3.70;;
41263;SDS011;26998;48.714;9.414;2022-10-16T08:45:39;8.73;;;3.63;;
41263;SDS011;26998;48.714;9.414;2022-10-16T08:50:55;5.05;;;2.40;;
41263;SDS011;26998;48.714;9.414;2022-10-16T08:53:29;5.15;;;2.38;;
41263;SDS011;26998;48.714;9.414;2022-10-16T08:56:00;3.42;;;1.77;;
41263;SDS011;26998;48.714;9.414;2022-10-16T08:58:27;4.75;;;2.10;;
41263;SDS011;26998;48.714;9.414;2022-10-16T09:01:03;7.63;;;2.60;;
41263;SDS011;26998;48.714;9.414;2022-10-16T09:06:46;4.45;;;2.05;;
41263;SDS011;26998;48.714;9.414;2022-10-16T09:09:29;2.78;;;2.00;;
41263;SDS011;26998;48.714;9.414;2022-10-16T09:12:19;7.40;;;2.13;;
41263;SDS011;26998;48.714;9.414;2022-10-16T09:14:53;4.32;;;2.00;;
41263;SDS011;26998;48.714;9.414;2022-10-16T09:17:25;5.00;;;1.92;;
41263;SDS011;26998;48.714;9.414;2022-10-16T09:22:44;3.13;;;1.63;;
41263;SDS011;26998;48.714;9.414;2022-10-16T09:25:17;3.22;;;2.10;;
41263;SDS011;26998;48.714;9.414;2022-10-16T09:27:55;7.28;;;2.70;;
41263;SDS011;26998;48.714;9.414;2022-10-16T09:30:22;9.55;;;3.17;;
41263;SDS011;26998;48.714;9.414;2022-10-16T09:32:55;7.00;;;2.30;;
41263;SDS011;26998;48.714;9.414;2022-10-16T09:35:36;4.53;;;2.78;;
41263;SDS011;26998;48.714;9.414;2022-10-16T09:38:20;4.72;;;2.20;;
41263;SDS011;26998;48.714;9.414;2022-10-16T09:40:59;2.00;;;1.80;;
41263;SDS011;26998;48.714;9.414;2022-10-16T09:46:08;2.67;;;1.67;;
41263;SDS011;26998;48.714;9.414;2022-10-16T09:48:48;4.70;;;1.77;;
41263;SDS011;26998;48.714;9.414;2022-10-16T09:51:18;8.50;;;1.90;;
41263;SDS011;26998;48.714;9.414;2022-10-16T09:56:25;3.95;;;1.27;;
41263;SDS011;26998;48.714;9.414;2022-10-16T09:58:55;4.87;;;1.73;;
41263;SDS011;26998;48.714;9.414;2022-10-16T10:01:26;2.83;;;1.52;;
41263;SDS011;26998;48.714;9.414;2022-10-16T10:03:58;2.38;;;1.83;;
41263;SDS011;26998;48.714;9.414;2022-10-16T10:06:26;2.72;;;1.90;;
41263;SDS011;26998;48.714;9.414;2022-10-16T10:11:38;1.52;;;1.40;;
41263;SDS011;26998;48.714;9.414;2022-10-16T10:16:52;5.47;;;2.03;;
41263;SDS011;26998;48.714;9.414;2022-10-16T10:19:28;6.40;;;2.08;;
41263;SDS011;26998;48.714;9.414;2022-10-16T10:21:58;4.85;;;1.60;;
41263;SDS011;26998;48.714;9.414;2022-10-16T10:24:24;7.25;;;1.98;;
41263;SDS011;26998;48.714;9.414;2022-10-16T10:26:57;4.78;;;3.20;;
41263;SDS011;26998;48.714;9.414;2022-10-16T10:29:41;5.22;;;3.55;;
41263;SDS011;26998;48.714;9.414;2022-10-16T10:32:29;6.53;;;2.20;;
41263;SDS011;26998;48.714;9.414;2022-10-16T10:35:22;3.75;;;2.30;;
41263;SDS011;26998;48.714;9.414;2022-10-16T10:38:24;3.63;;;1.95;;
41263;SDS011;26998;48.714;9.414;2022-10-16T10:44:25;5.75;;;1.60;;
41263;SDS011;26998;48.714;9.414;2022-10-16T10:50:28;3.75;;;1.60;;
41263;SDS011;26998;48.714;9.414;2022-10-16T10:56:15;4.70;;;1.52;;
41263;SDS011;26998;48.714;9.414;2022-10-16T11:01:50;2.63;;;1.77;;
41263;SDS011;26998;48.714;9.414;2022-10-16T11:07:49;3.80;;;1.92;;
41263;SDS011;26998;48.714;9.414;2022-10-16T11:10:15;4.10;;;1.60;;
41263;SDS011;26998;48.714;9.414;2022-10-16T11:12:55;2.08;;;1.40;;
41263;SDS011;26998;48.714;9.414;2022-10-16T11:15:37;6.80;;;1.40;;
41263;SDS011;26998;48.714;9.414;2022-10-16T11:18:18;2.13;;;1.75;;
41263;SDS011;26998;48.714;9.414;2022-10-16T11:20:52;6.15;;;1.95;;
41263;SDS011;26998;48.714;9.414;2022-10-16T11:23:38;2.72;;;1.50;;
41263;SDS011;26998;48.714;9.414;2022-10-16T11:26:20;2.13;;;1.70;;
41263;SDS011;26998;48.714;9.414;2022-10-16T11:28:54;2.63;;;1.30;;
41263;SDS011;26998;48.714;9.414;2022-10-16T11:31:29;3.85;;;1.45;;
41263;SDS011;26998;48.714;9.414;2022-10-16T11:34:09;4.55;;;1.40;;
41263;SDS011;26998;48.714;9.414;2022-10-16T11:39:18;3.15;;;1.40;;
41263;SDS011;26998;48.714;9.414;2022-10-16T11:42:03;3.22;;;1.52;;
41263;SDS011;26998;48.714;9.414;2022-10-16T11:47:42;2.53;;;1.10;;
41263;SDS011;26998;48.714;9.414;2022-10-16T11:50:32;4.90;;;1.40;;
41263;SDS011;26998;48.714;9.414;2022-10-16T11:55:57;3.47;;;1.20;;
41263;SDS011;26998;48.714;9.414;2022-10-16T11:58:30;3.72;;;1.38;;
41263;SDS011;26998;48.714;9.414;2022-10-16T12:09:38;1.20;;;1.10;;
41263;SDS011;26998;48.714;9.414;2022-10-16T12:15:18;2.60;;;1.30;;
41263;SDS011;26998;48.714;9.414;2022-10-16T12:18:23;2.78;;;1.48;;
41263;SDS011;26998;48.714;9.414;2022-10-16T12:20:57;2.30;;;1.25;;
41263;SDS011;26998;48.714;9.414;2022-10-16T12:23:25;2.08;;;1.08;;
41263;SDS011;26998;48.714;9.414;2022-10-16T12:25:56;5.28;;;2.00;;
41263;SDS011;26998;48.714;9.414;2022-10-16T12:28:27;3.08;;;1.33;;
41263;SDS011;26998;48.714;9.414;2022-10-16T12:31:03;2.47;;;1.05;;
41263;SDS011;26998;48.714;9.414;2022-10-16T12:33:33;1.40;;;1.15;;
41263;SDS011;26998;48.714;9.414;2022-10-16T12:36:14;3.80;;;1.40;;
41263;SDS011;26998;48.714;9.414;2022-10-16T12:38:46;1.73;;;1.20;;
41263;SDS011;26998;48.714;9.414;2022-10-16T12:41:24;4.20;;;1.42;;
41263;SDS011;26998;48.714;9.414;2022-10-16T12:43:56;1.60;;;1.10;;
41263;SDS011;26998;48.714;9.414;2022-10-16T12:46:35;1.40;;;1.30;;
41263;SDS011;26998;48.714;9.414;2022-10-16T12:51:57;3.13;;;1.30;;
41263;SDS011;26998;48.714;9.414;2022-10-16T12:54:37;2.03;;;1.00;;
41263;SDS011;26998;48.714;9.414;2022-10-16T13:11:37;2.35;;;1.40;;
41263;SDS011;26998;48.714;9.414;2022-10-16T13:17:04;1.75;;;1.15;;
41263;SDS011;26998;48.714;9.414;2022-10-16T13:19:47;4.97;;;1.40;;
41263;SDS011;26998;48.714;9.414;2022-10-16T13:25:28;2.80;;;1.38;;
41263;SDS011;26998;48.714;9.414;2022-10-16T13:28:16;6.45;;;1.50;;
41263;SDS011;26998;48.714;9.414;2022-10-16T13:30:53;1.35;;;1.00;;
41263;SDS011;26998;48.714;9.414;2022-10-16T13:36:25;5.47;;;1.30;;
41263;SDS011;26998;48.714;9.414;2022-10-16T13:39:11;1.52;;;1.00;;
41263;SDS011;26998;48.714;9.414;2022-10-16T13:44:41;2.33;;;1.20;;
41263;SDS011;26998;48.714;9.414;2022-10-16T13:47:16;4.22;;;1.30;;
41263;SDS011;26998;48.714;9.414;2022-10-16T13:49:58;2.75;;;1.52;;
41263;SDS011;26998;48.714;9.414;2022-10-16T13:52:29;1.85;;;1.10;;
41263;SDS011;26998;48.714;9.414;2022-10-16T13:54:56;1.90;;;1.17;;
41263;SDS011;26998;48.714;9.414;2022-10-16T13:57:27;1.98;;;0.93;;
41263;SDS011;26998;48.714;9.414;2022-10-16T13:59:54;2.30;;;1.48;;
41263;SDS011;26998;48.714;9.414;2022-10-16T14:02:29;4.20;;;2.50;;
41263;SDS011;26998;48.714;9.414;2022-10-16T14:05:01;2.47;;;2.05;;
41263;SDS011;26998;48.714;9.414;2022-10-16T14:07:33;2.88;;;1.60;;
41263;SDS011;26998;48.714;9.414;2022-10-16T14:10:03;3.38;;;1.40;;
41263;SDS011;26998;48.714;9.414;2022-10-16T14:12:31;5.10;;;2.00;;
41263;SDS011;26998;48.714;9.414;2022-10-16T14:14:59;2.85;;;1.30;;
41263;SDS011;26998;48.714;9.414;2022-10-16T14:17:29;2.88;;;1.50;;
41263;SDS011;26998;48.714;9.414;2022-10-16T14:19:59;2.85;;;1.40;;
41263;SDS011;26998;48.714;9.414;2022-10-16T14:22:37;1.80;;;1.30;;
41263;SDS011;26998;48.714;9.414;2022-10-16T14:28:30;1.40;;;1.30;;
41263;SDS011;26998;48.714;9.414;2022-10-16T14:30:57;7.78;;;2.00;;
41263;SDS011;26998;48.714;9.414;2022-10-16T14:36:03;1.88;;;1.23;;
41263;SDS011;26998;48.714;9.414;2022-10-16T14:38:33;1.30;;;1.10;;
41263;SDS011;26998;48.714;9.414;2022-10-16T14:41:01;1.50;;;1.40;;
41263;SDS011;26998;48.714;9.414;2022-10-16T14:43:39;3.20;;;1.48;;
41263;SDS011;26998;48.714;9.414;2022-10-16T14:46:14;2.85;;;1.45;;
41263;SDS011;26998;48.714;9.414;2022-10-16T14:48:45;3.67;;;1.60;;
41263;SDS011;26998;48.714;9.414;2022-10-16T14:51:19;3.47;;;1.40;;
41263;SDS011;26998;48.714;9.414;2022-10-16T14:53:46;7.78;;;1.70;;
41263;SDS011;26998;48.714;9.414;2022-10-16T14:56:17;5.53;;;1.63;;
41263;SDS011;26998;48.714;9.414;2022-10-16T14:58:45;2.58;;;1.27;;
41263;SDS011;26998;48.714;9.414;2022-10-16T15:01:12;1.98;;;1.38;;
41263;SDS011;26998;48.714;9.414;2022-10-16T15:03:39;2.15;;;1.42;;
41263;SDS011;26998;48.714;9.414;2022-10-16T15:06:09;2.85;;;1.42;;
41263;SDS011;26998;48.714;9.414;2022-10-16T15:08:38;1.75;;;1.40;;
41263;SDS011;26998;48.714;9.414;2022-10-16T15:11:05;2.22;;;1.50;;
41263;SDS011;26998;48.714;9.414;2022-10-16T15:13:37;2.65;;;1.30;;
41263;SDS011;26998;48.714;9.414;2022-10-16T15:16:03;2.97;;;2.30;;
41263;SDS011;26998;48.714;9.414;2022-10-16T15:18:30;4.90;;;2.03;;
41263;SDS011;26998;48.714;9.414;2022-10-16T15:20:57;2.70;;;2.00;;
41263;SDS011;26998;48.714;9.414;2022-10-16T15:23:25;3.22;;;1.75;;
41263;SDS011;26998;48.714;9.414;2022-10-16T15:25:56;4.93;;;2.03;;
41263;SDS011;26998;48.714;9.414;2022-10-16T15:28:24;2.13;;;1.70;;
41263;SDS011;26998;48.714;9.414;2022-10-16T15:30:52;5.60;;;1.73;;
41263;SDS011;26998;48.714;9.414;2022-10-16T15:33:21;4.78;;;2.17;;
41263;SDS011;26998;48.714;9.414;2022-10-16T15:35:50;5.80;;;1.83;;
41263;SDS011;26998;48.714;9.414;2022-10-16T15:38:19;8.15;;;2.53;;
41263;SDS011;26998;48.714;9.414;2022-10-16T15:40:46;5.57;;;1.65;;
41263;SDS011;26998;48.714;9.414;2022-10-16T15:43:14;3.58;;;1.85;;
41263;SDS011;26998;48.714;9.414;2022-10-16T15:45:42;2.45;;;1.48;;
41263;SDS011;26998;48.714;9.414;2022-10-16T15:48:11;4.80;;;1.80;;
41263;SDS011;26998;48.714;9.414;2022-10-16T15:53:05;3.65;;;2.00;;
41263;SDS011;26998;48.714;9.414;2022-10-16T15:55:32;3.15;;;2.10;;
41263;SDS011;26998;48.714;9.414;2022-10-16T15:58:02;3.90;;;2.78;;
41263;SDS011;26998;48.714;9.414;2022-10-16T16:00:29;5.30;;;2.22;;
41263;SDS011;26998;48.714;9.414;2022-10-16T16:02:55;3.50;;;2.50;;
41263;SDS011;26998;48.714;9.414;2022-10-16T16:05:22;4.80;;;2.92;;
41263;SDS011;26998;48.714;9.414;2022-10-16T16:07:49;5.80;;;2.63;;
41263;SDS011;26998;48.714;9.414;2022-10-16T16:10:19;5.35;;;2.95;;
41263;SDS011;26998;48.714;9.414;2022-10-16T16:12:47;11.73;;;3.15;;
41263;SDS011;26998;48.714;9.414;2022-10-16T16:15:14;10.15;;;3.08;;
41263;SDS011;26998;48.714;9.414;2022-10-16T16:17:41;8.82;;;2.95;;
41263;SDS011;26998;48.714;9.414;2022-10-16T16:20:07;11.20;;;3.40;;
41263;SDS011;26998;48.714;9.414;2022-10-16T16:22:34;11.10;;;2.95;;
41263;SDS011;26998;48.714;9.414;2022-10-16T16:25:01;11.65;;;3.20;;
41263;SDS011;26998;48.714;9.414;2022-10-16T16:27:27;10.95;;;3.78;;
41263;SDS011;26998;48.714;9.414;2022-10-16T16:29:55;8.02;;;3.38;;
41263;SDS011;26998;48.714;9.414;2022-10-16T16:32:22;7.80;;;3.22;;
41263;SDS011;26998;48.714;9.414;2022-10-16T16:34:48;9.95;;;3.35;;
41263;SDS011;26998;48.714;9.414;2022-10-16T16:37:15;10.23;;;3.25;;
41263;SDS011;26998;48.714;9.414;2022-10-16T16:39:41;13.25;;;3.42;;
41263;SDS011;26998;48.714;9.414;2022-10-16T16:42:07;11.27;;;4.70;;
41263;SDS011;26998;48.714;9.414;2022-10-16T16:44:34;21.02;;;5.70;;
41263;SDS011;26998;48.714;9.414;2022-10-16T16:47:00;23.73;;;4.80;;
41263;SDS011;26998;48.714;9.414;2022-10-16T16:49:27;11.30;;;3.55;;
41263;SDS011;26998;48.714;9.414;2022-10-16T16:51:54;10.73;;;3.80;;
41263;SDS011;26998;48.714;9.414;2022-10-16T16:54:21;4.47;;;3.22;;
41263;SDS011;26998;48.714;9.414;2022-10-16T16:56:50;7.78;;;3.38;;